Bluegrove, Texas
Current Conditions -  °F | °C
As of 7:55 AM on Saturday 25 Oct 2014 (Local Time) from KCWC Reporting Station
Clear Clear  
Wind Chill: 60°   Ceiling: Unl
Heat Index: 60°   Visibility: 10mi
Dew Point: 56°   Wind: 5mph
Humidity: 89%   Direction: 180°S
Pressure: 30.11"   Gusts: NA
Location:  33.67°N, 98.23°W
Report Text: KCWC 251255Z AUTO 18004KT 10SM CLR 15/14 A3011 RMK AO2 T01530135
Loading
Personal Weather Stations






























Interactive Weather Map
Tropical Storm Tracking
New forecast layout! Learn more

10-Day Weather Forecast

Advertisements
Track Severe Weather on mobile